Погода METAR - Новосибирск (Толмачево)

Кемерово, Абакан, Красноярск, Новосибирск
Код METAR: UNNT 011700Z 21003MPS 8000 OVC007 M17/M19 Q1049 R25/190050 R34/810160 NOSIG RMK QFE776/1035

Погода - Сейчас

Время: 2020-12-02 00:00, местное
Направление ветра: Юго-запад (210°)
Скорость ветра: 3 м/с
Видимость:
Температура: -17°C
Точка росы: -19°C
Атмосферное давление: 1049 гПа

Архив погоды

Время, местное Направление Скорость, м/с Температура, °C Точка росы, °C Давление, гПа
2020-12-02 00:00 ЮЗ (210°) 3 -17 -19 1049
2020-11-28 17:00 ЗЮЗ (260°) 3 -15 -17 1035
2020-11-26 21:30 Переменный 1 -13 -14 1040
2020-11-25 11:00 СВ (40°) 2 -6 -8 1039
2020-11-23 10:00 С (350°) 2 -5 -7 1034
2020-11-22 16:00 Ю (190°) 2 -7 -10 1032
2020-11-22 11:30 ЮЗ (220°) 4 -6 -9 1032
2020-11-20 02:30 Ю (190°) 6 -9 -10 1038
2020-11-19 12:30 ЮЮЗ (200°) 4 -11 -14 1036
2020-11-17 18:30 ЮЗ (230°) 2 -14 -16 1033
2020-11-16 08:00 ЮЮВ (160°) 4 -6 -8 1021
2020-11-15 15:30 В (100°) 2 -3 -7 1024
2020-11-15 06:30 Штиль 0 -6 -7 1026
2020-11-10 07:30 ЮЮЗ (200°) 6 3 1 1006
2020-11-09 12:30 ЮЮЗ (200°) 8, порывы до 13 6 0 1006
2020-11-08 15:00 Ю (170°) 6 9 -1 1007
2020-11-08 12:00 Ю (180°) 7 8 -2 1009
2020-11-08 04:00 ЮЮВ (160°) 6 3 -2 1013
2020-11-06 14:00 Ю (170°) 3 2 1 1022
2020-11-05 17:00 З (270°) 6 3 1 1015
2020-11-05 03:00 ЮЗ (220°) 6 -1 -4 1014
2020-11-01 19:00 Ю (170°) 4 2 -1 1024
2020-11-01 12:00 Ю (190°) 6 3 1 1028
2020-10-29 13:30 ЗЮЗ (240°) 8 -5 -9 1027
2020-10-27 07:00 ЮВ (140°) 5 6 1 1008
2020-10-23 23:00 Ю (190°) 4 -1 -5 1016
2020-10-22 11:30 ЮЗ (210°) 9, порывы до 15 10 -1 998
2020-10-20 17:00 Ю (180°) 4 9 0 1016
2020-10-20 10:00 ЮЗ (210°) 6 5 -3 1015
2020-10-18 15:00 З (280°) 8, порывы до 13 3 -6 1013
2020-10-18 00:30 Ю (190°) 6 13 1 1005
2020-10-17 02:00 Ю (180°) 6 8 5 1017
2020-10-16 19:30 ЮЮВ (160°) 3 3 2 1023
2020-10-16 11:00 СВ (30°) 2 3 1 1026
2020-10-13 19:00 СЗ (310°) 2 7 5 1026
2020-10-10 03:00 ЮЗ (220°) 6 2 -4 1026
2020-10-08 02:30 ЮЗ (230°) 3 0 -6 1023
2020-10-04 23:00 СЗ (320°) 5 4 4 1018
2020-10-03 17:00 ЮЮЗ (200°) 5 13 6 1021
2020-10-02 12:30 ЮЗ (220°) 4 8 2 1031
2020-10-01 05:30 З (280°) 3 4 4 1025
2020-09-28 20:00 ЮЗ (220°) 2 10 1 1023
2020-09-27 10:30 Штиль 0 7 4 1030
2020-09-25 20:00 ССЗ (330°) 3 8 7 1016
2020-09-25 05:30 С (360°) 1 4 4 1004
2020-09-23 06:00 ЮВ (130°) 3 7 6 1009
2020-09-22 21:00 ЮЮЗ (200°) 4 12 2 1014
2020-09-21 18:00 ЮЮВ (160°) 4 21 7 1007